Time;durP1;ratioP1;P1;durP2;ratioP2;P2;SDS_P1;SDS_P2;PMS_P1;PMS_P2;Temp;Humidity;BMP_temperature;BMP_pressure;BME280_temperature;BME280_humidity;BME280_pressure;Samples;Min_cycle;Max_cycle;Signal;HPM_P1;HPM_P2
2022/06/01 00:00:27;;;;;;;21.02;18.90;;;12.20;99.90;;;;;;4923541;29;20090;-87
2022/06/01 00:02:53;;;;;;;21.00;18.92;;;12.20;99.90;;;;;;4912638;29;20148;-88
2022/06/01 00:05:19;;;;;;;20.70;18.80;;;12.20;99.90;;;;;;4897047;29;20089;-88
2022/06/01 00:07:46;;;;;;;21.38;19.20;;;12.20;99.90;;;;;;4930210;29;20123;-88
2022/06/01 00:10:12;;;;;;;21.80;19.70;;;12.20;99.90;;;;;;4918979;29;20052;-88
2022/06/01 00:12:38;;;;;;;22.13;19.95;;;12.20;99.90;;;;;;4926418;29;20218;-87
2022/06/01 00:15:05;;;;;;;21.73;19.67;;;12.10;99.90;;;;;;4915580;29;20040;-88
2022/06/01 00:17:31;;;;;;;21.92;19.83;;;12.10;99.90;;;;;;4911589;29;20062;-88
2022/06/01 00:19:57;;;;;;;21.15;19.05;;;12.10;99.90;;;;;;4923017;29;20051;-88
2022/06/01 00:22:22;;;;;;;20.55;18.45;;;12.20;99.90;;;;;;4906892;29;20048;-88
2022/06/01 00:24:48;;;;;;;22.50;20.30;;;12.00;99.90;;;;;;4907875;29;20043;-87
2022/06/01 00:27:16;;;;;;;22.35;20.15;;;12.00;99.90;;;;;;4912699;29;20048;-87
2022/06/01 00:29:42;;;;;;;20.48;18.58;;;12.00;99.90;;;;;;4914351;29;20036;-88
2022/06/01 00:32:11;;;;;;;20.85;18.95;;;12.00;99.90;;;;;;4910281;29;20059;-87
2022/06/01 00:34:37;;;;;;;21.60;19.60;;;12.00;99.90;;;;;;4901720;29;20056;-86
2022/06/01 00:37:03;;;;;;;21.67;19.58;;;12.00;99.90;;;;;;4918727;29;21323;-88
2022/06/01 00:39:29;;;;;;;22.38;20.27;;;12.00;99.90;;;;;;4909893;29;20130;-87
2022/06/01 00:41:56;;;;;;;21.75;19.63;;;11.90;99.90;;;;;;4919552;29;20155;-86
2022/06/01 00:44:22;;;;;;;21.05;18.95;;;12.00;99.90;;;;;;4921351;29;20508;-87
2022/06/01 00:46:48;;;;;;;21.45;19.35;;;11.90;99.90;;;;;;4922977;29;20067;-88
2022/06/01 00:49:19;;;;;;;20.92;18.92;;;11.90;99.90;;;;;;4913473;29;20044;-88
2022/06/01 00:51:46;;;;;;;21.42;19.40;;;11.90;99.90;;;;;;4907357;29;20394;-88
2022/06/01 00:54:13;;;;;;;22.80;20.60;;;11.80;99.90;;;;;;4901151;29;20092;-89
2022/06/01 00:56:44;;;;;;;22.20;20.20;;;11.80;99.90;;;;;;4915955;29;20036;-88
2022/06/01 00:59:15;;;;;;;22.85;20.75;;;11.70;99.90;;;;;;4916558;29;20043;-87
2022/06/01 01:01:41;;;;;;;21.83;19.83;;;11.70;99.90;;;;;;4909342;29;20055;-87
2022/06/01 01:04:07;;;;;;;22.20;20.10;;;11.60;99.90;;;;;;4912600;29;20099;-88
2022/06/01 01:06:37;;;;;;;22.63;20.25;;;11.60;99.90;;;;;;4906115;29;20055;-87
2022/06/01 01:09:05;;;;;;;22.58;20.48;;;11.60;99.90;;;;;;4913976;29;20059;-86
2022/06/01 01:11:53;;;;;;;22.80;20.70;;;11.50;99.90;;;;;;4897471;29;20040;-88
2022/06/01 01:14:23;;;;;;;23.00;20.80;;;11.50;99.90;;;;;;4918106;29;20398;-87
2022/06/01 01:16:49;;;;;;;22.85;20.55;;;11.40;99.90;;;;;;4924179;29;20880;-86
2022/06/01 01:19:41;;;;;;;22.73;20.58;;;11.40;99.90;;;;;;4914416;29;20051;-88
2022/06/01 01:22:19;;;;;;;23.25;21.05;;;11.40;99.90;;;;;;4928223;29;20047;-88
2022/06/01 01:25:23;;;;;;;22.45;20.25;;;11.40;99.90;;;;;;4927127;29;20235;-86
2022/06/01 01:27:53;;;;;;;22.90;20.73;;;11.30;99.90;;;;;;4911591;29;20043;-88
2022/06/01 01:30:37;;;;;;;22.77;20.63;;;11.30;99.90;;;;;;4911867;29;20054;-87
2022/06/01 01:33:26;;;;;;;22.98;20.77;;;11.30;99.90;;;;;;4905456;29;20061;-88
2022/06/01 01:35:56;;;;;;;22.77;20.67;;;11.30;99.90;;;;;;4914111;29;20731;-87
2022/06/01 01:38:35;;;;;;;22.97;20.77;;;11.20;99.90;;;;;;4912548;29;20127;-87
2022/06/01 01:41:32;;;;;;;23.85;21.55;;;11.20;99.90;;;;;;4914315;29;20075;-87
2022/06/01 01:44:03;;;;;;;23.65;21.33;;;11.20;99.90;;;;;;4880065;29;20398;-88
2022/06/01 01:46:30;;;;;;;22.27;20.17;;;11.20;99.90;;;;;;4917756;29;20082;-87
2022/06/01 01:48:56;;;;;;;23.02;20.83;;;11.20;99.90;;;;;;4916606;29;20091;-87
2022/06/01 01:51:24;;;;;;;23.38;21.05;;;11.20;99.90;;;;;;4918208;29;21096;-88
2022/06/01 01:53:50;;;;;;;23.50;21.30;;;11.20;99.90;;;;;;4916625;29;20453;-87
2022/06/01 01:56:35;;;;;;;23.40;21.17;;;11.30;99.90;;;;;;4932445;29;20047;-87
2022/06/01 01:59:19;;;;;;;23.98;21.67;;;11.20;99.90;;;;;;4917170;29;20056;-87
2022/06/01 02:02:10;;;;;;;24.38;22.08;;;11.20;99.90;;;;;;4910147;29;20060;-87
2022/06/01 02:07:46;;;;;;;23.65;21.42;;;11.20;99.90;;;;;;4914914;29;20052;-87
2022/06/01 02:12:57;;;;;;;24.38;22.05;;;11.20;99.90;;;;;;4913824;29;20052;-87
2022/06/01 02:15:28;;;;;;;25.67;23.23;;;11.20;99.90;;;;;;4929325;29;20043;-87
2022/06/01 02:17:58;;;;;;;25.98;23.58;;;11.20;99.90;;;;;;4913505;29;20083;-87
2022/06/01 02:20:42;;;;;;;25.17;22.63;;;11.20;99.90;;;;;;4911151;29;20048;-87
2022/06/01 02:23:11;;;;;;;25.40;22.98;;;11.20;99.90;;;;;;4911907;29;20461;-87
2022/06/01 02:25:39;;;;;;;25.92;23.52;;;11.30;99.90;;;;;;4924984;29;20063;-86
2022/06/01 02:28:06;;;;;;;26.00;23.55;;;11.20;99.90;;;;;;4932727;29;20512;-87
2022/06/01 02:30:36;;;;;;;26.38;23.98;;;11.20;99.90;;;;;;4925216;29;20099;-87
2022/06/01 02:33:06;;;;;;;26.67;24.17;;;11.20;99.90;;;;;;4912572;29;20374;-87
2022/06/01 02:35:36;;;;;;;28.33;25.63;;;11.20;99.90;;;;;;4924845;29;20044;-87
2022/06/01 02:38:04;;;;;;;28.13;25.55;;;11.30;99.90;;;;;;4913449;29;20104;-87
2022/06/01 02:40:30;;;;;;;26.65;24.25;;;11.20;99.90;;;;;;4908101;29;20137;-87
2022/06/01 02:42:56;;;;;;;27.15;24.58;;;11.20;99.90;;;;;;4918583;29;20567;-86
2022/06/01 02:45:25;;;;;;;26.83;24.33;;;11.20;99.90;;;;;;4919841;29;20135;-87
2022/06/01 02:47:53;;;;;;;28.60;25.98;;;11.30;99.90;;;;;;4911180;29;20043;-86
2022/06/01 02:50:23;;;;;;;28.10;25.42;;;11.40;99.90;;;;;;4902724;29;20044;-87
2022/06/01 02:52:48;;;;;;;28.92;26.23;;;11.30;99.90;;;;;;4916946;29;20040;-87
2022/06/01 02:55:15;;;;;;;30.90;28.02;;;11.30;99.90;;;;;;4919699;29;20044;-87
2022/06/01 02:57:42;;;;;;;29.58;26.95;;;11.30;99.90;;;;;;4929402;29;20404;-87
2022/06/01 03:00:17;;;;;;;29.83;27.10;;;11.30;99.90;;;;;;4926602;29;20080;-86
2022/06/01 03:02:44;;;;;;;31.15;28.23;;;11.30;99.90;;;;;;4905456;29;20759;-88
2022/06/01 03:05:12;;;;;;;31.15;28.35;;;11.30;99.90;;;;;;4919431;29;20576;-86
2022/06/01 03:07:37;;;;;;;31.80;29.00;;;11.30;99.90;;;;;;4909751;29;20048;-87
2022/06/01 03:10:03;;;;;;;31.25;28.30;;;11.30;99.90;;;;;;4927023;29;20493;-87
2022/06/01 03:12:29;;;;;;;31.50;28.70;;;11.30;99.90;;;;;;4907626;29;20083;-86
2022/06/01 03:14:55;;;;;;;31.20;28.27;;;11.30;99.90;;;;;;4910389;29;20632;-87
2022/06/01 03:17:20;;;;;;;31.05;28.23;;;11.30;99.90;;;;;;4906048;29;20446;-87
2022/06/01 03:19:46;;;;;;;33.20;30.10;;;11.20;99.90;;;;;;4909939;29;20501;-87
2022/06/01 03:22:12;;;;;;;31.17;28.30;;;11.30;99.90;;;;;;4920704;29;20107;-87
2022/06/01 03:24:37;;;;;;;31.08;28.25;;;11.20;99.90;;;;;;4924532;29;20527;-87
2022/06/01 03:27:03;;;;;;;32.08;29.17;;;11.20;99.90;;;;;;4919463;29;20043;-87
2022/06/01 03:29:29;;;;;;;32.78;29.75;;;11.20;99.90;;;;;;4910981;29;20134;-86
2022/06/01 03:31:54;;;;;;;32.47;29.48;;;11.20;99.90;;;;;;4911062;29;20040;-87
2022/06/01 03:34:20;;;;;;;32.42;29.50;;;11.20;99.90;;;;;;4924603;29;20138;-88
2022/06/01 03:36:46;;;;;;;33.75;30.75;;;11.10;99.90;;;;;;4917909;29;20044;-88
2022/06/01 03:39:11;;;;;;;33.15;30.25;;;11.20;99.90;;;;;;4911136;29;20036;-87
2022/06/01 03:41:37;;;;;;;31.30;28.42;;;11.20;99.90;;;;;;4913925;29;20531;-87
2022/06/01 03:46:48;;;;;;;32.08;29.17;;;11.30;99.90;;;;;;4917952;29;20052;-87
2022/06/01 03:49:13;;;;;;;31.63;28.73;;;11.20;99.90;;;;;;4924621;29;20452;-87
2022/06/01 03:51:39;;;;;;;31.92;29.02;;;11.20;99.90;;;;;;4916968;29;20566;-88
2022/06/01 03:54:06;;;;;;;31.20;28.45;;;11.20;99.90;;;;;;4910861;29;20059;-86
2022/06/01 03:56:32;;;;;;;30.67;27.80;;;11.30;99.90;;;;;;4907189;29;20048;-86
2022/06/01 03:58:58;;;;;;;31.23;28.33;;;11.30;99.90;;;;;;4911950;29;20035;-86
2022/06/01 04:01:24;;;;;;;31.63;28.73;;;11.20;99.90;;;;;;4905453;29;20111;-86
2022/06/01 04:03:50;;;;;;;30.85;28.05;;;11.30;99.90;;;;;;4911790;29;20040;-87
2022/06/01 04:06:15;;;;;;;31.42;28.63;;;11.30;99.90;;;;;;4923228;29;20095;-87
2022/06/01 04:08:41;;;;;;;31.20;28.40;;;11.30;99.90;;;;;;4930694;29;20127;-89
2022/06/01 04:11:07;;;;;;;30.35;27.65;;;11.40;99.90;;;;;;4921003;29;20067;-87
2022/06/01 04:13:33;;;;;;;31.13;28.33;;;11.30;99.90;;;;;;4929944;29;20439;-86
2022/06/01 04:15:59;;;;;;;31.23;28.42;;;11.30;99.90;;;;;;4923339;29;20903;-87
2022/06/01 04:18:25;;;;;;;31.52;28.67;;;11.30;99.90;;;;;;4908910;29;20040;-88
2022/06/01 04:20:53;;;;;;;31.63;28.67;;;11.40;99.90;;;;;;4893120;29;20797;-86
2022/06/01 04:23:19;;;;;;;31.08;28.27;;;11.30;99.90;;;;;;4922544;29;20450;-87
2022/06/01 04:25:44;;;;;;;32.08;29.08;;;11.30;99.90;;;;;;4911540;29;20082;-87
2022/06/01 04:28:11;;;;;;;31.45;28.55;;;11.40;99.90;;;;;;4917658;29;20374;-86
2022/06/01 04:30:37;;;;;;;32.38;29.35;;;11.30;99.90;;;;;;4918007;29;20039;-87
2022/06/01 04:33:03;;;;;;;32.15;29.08;;;11.30;99.90;;;;;;4916532;29;20043;-87
2022/06/01 04:35:30;;;;;;;33.33;30.33;;;11.40;99.90;;;;;;4924911;29;20094;-87
2022/06/01 04:38:12;;;;;;;33.38;30.27;;;11.30;99.90;;;;;;4908274;29;20800;-86
2022/06/01 04:40:49;;;;;;;33.63;30.42;;;11.30;99.90;;;;;;4902469;29;20052;-88
2022/06/01 04:43:18;;;;;;;32.70;29.63;;;11.30;99.90;;;;;;4928189;29;20036;-87
2022/06/01 04:45:44;;;;;;;32.97;29.98;;;11.30;99.90;;;;;;4913971;29;20048;-87
2022/06/01 04:48:11;;;;;;;33.85;30.70;;;11.30;99.90;;;;;;4922461;29;20074;-89
2022/06/01 04:50:42;;;;;;;33.05;30.05;;;11.40;99.90;;;;;;4893101;29;20046;-88
2022/06/01 04:53:12;;;;;;;32.17;29.20;;;11.40;99.90;;;;;;4920580;29;20040;-88
2022/06/01 04:55:38;;;;;;;32.60;29.60;;;11.40;99.90;;;;;;4913457;29;20071;-89
2022/06/01 04:58:03;;;;;;;32.70;29.70;;;11.40;99.90;;;;;;4917635;29;20056;-91
2022/06/01 05:00:29;;;;;;;31.67;28.88;;;11.50;99.90;;;;;;4916574;29;20056;-89
2022/06/01 05:02:55;;;;;;;32.50;29.50;;;11.40;99.90;;;;;;4907214;29;20760;-88
2022/06/01 05:05:20;;;;;;;31.77;28.77;;;11.50;99.90;;;;;;4914297;29;20115;-89
2022/06/01 05:07:46;;;;;;;31.63;28.67;;;11.50;99.90;;;;;;4913146;29;20151;-93
2022/06/01 05:10:11;;;;;;;31.08;28.20;;;11.50;99.90;;;;;;4912849;29;20400;-90
2022/06/01 05:12:37;;;;;;;29.38;26.67;;;11.60;99.90;;;;;;4909580;29;20040;-90
2022/06/01 05:15:03;;;;;;;28.58;25.83;;;11.50;99.90;;;;;;4914489;29;20036;-90
2022/06/01 05:17:33;;;;;;;27.92;25.33;;;11.60;99.90;;;;;;4916933;29;20402;-91
2022/06/01 05:19:59;;;;;;;30.23;27.45;;;11.50;99.90;;;;;;4907787;29;20063;-90
2022/06/01 05:22:25;;;;;;;29.92;27.10;;;11.60;99.90;;;;;;4916292;29;20068;-88
2022/06/01 05:24:50;;;;;;;28.73;26.05;;;11.50;99.90;;;;;;4914532;29;20067;-89
2022/06/01 05:27:16;;;;;;;31.58;28.58;;;11.60;99.90;;;;;;4926448;29;20075;-89
2022/06/01 05:29:41;;;;;;;30.23;27.42;;;11.60;99.90;;;;;;4929379;29;20048;-89
2022/06/01 05:32:09;;;;;;;31.67;28.75;;;11.70;99.90;;;;;;4914654;29;20048;-89
2022/06/01 05:34:35;;;;;;;32.58;29.60;;;11.60;99.90;;;;;;4911162;29;20447;-89
2022/06/01 05:37:01;;;;;;;31.30;28.42;;;11.70;99.90;;;;;;4908829;29;20186;-89
2022/06/01 05:39:26;;;;;;;30.98;28.08;;;11.70;99.90;;;;;;4915337;29;20050;-89
2022/06/01 05:41:52;;;;;;;30.77;27.88;;;11.80;99.90;;;;;;4922190;29;21223;-90
2022/06/01 05:44:17;;;;;;;30.58;27.70;;;11.80;99.90;;;;;;4914807;29;20052;-89
2022/06/01 05:46:43;;;;;;;32.42;29.30;;;11.80;99.90;;;;;;4926379;29;20538;-91
2022/06/01 05:49:15;;;;;;;30.08;27.27;;;11.80;99.90;;;;;;4921215;29;20047;-89
2022/06/01 05:51:40;;;;;;;30.50;27.70;;;11.90;99.90;;;;;;4899050;29;20798;-90
2022/06/01 05:54:06;;;;;;;30.55;27.73;;;12.00;99.90;;;;;;4932500;29;20044;-89
2022/06/01 05:56:32;;;;;;;30.92;28.17;;;12.10;99.90;;;;;;4930729;29;20177;-89
2022/06/01 05:58:57;;;;;;;31.73;28.67;;;12.10;99.90;;;;;;4920849;29;20039;-89
2022/06/01 06:01:23;;;;;;;31.20;28.40;;;12.30;99.90;;;;;;4920336;29;20505;-90
2022/06/01 06:03:49;;;;;;;33.03;30.02;;;12.50;99.90;;;;;;4917847;29;20047;-88
2022/06/01 06:06:16;;;;;;;33.22;30.13;;;12.60;99.90;;;;;;4900036;29;20082;-89
2022/06/01 06:08:51;;;;;;;34.72;31.42;;;12.60;99.90;;;;;;4932439;29;20044;-87
2022/06/01 06:11:17;;;;;;;34.03;30.95;;;12.60;99.90;;;;;;4919991;29;20056;-91
2022/06/01 06:13:43;;;;;;;33.78;30.65;;;12.60;99.90;;;;;;4926555;29;20197;-89
2022/06/01 06:16:10;;;;;;;34.15;31.15;;;12.60;99.90;;;;;;4925591;29;20154;-90
2022/06/01 06:18:36;;;;;;;34.50;31.33;;;12.50;99.90;;;;;;4921950;29;20512;-91
2022/06/01 06:21:02;;;;;;;34.63;31.50;;;12.60;99.90;;;;;;4917970;29;20673;-92
2022/06/01 06:23:28;;;;;;;34.28;31.08;;;12.60;99.90;;;;;;4920020;29;20107;-91
2022/06/01 06:25:54;;;;;;;32.90;29.90;;;12.70;99.90;;;;;;4923607;29;20096;-92
2022/06/01 06:28:20;;;;;;;33.03;30.05;;;12.70;99.90;;;;;;4921198;29;20043;-91
2022/06/01 06:30:45;;;;;;;31.30;28.40;;;12.70;99.90;;;;;;4935597;29;20102;-90
2022/06/01 06:33:11;;;;;;;32.45;29.45;;;12.70;99.90;;;;;;4920029;29;20036;-95
2022/06/01 06:35:37;;;;;;;32.65;29.60;;;12.70;99.90;;;;;;4930578;29;20191;-88
2022/06/01 06:38:04;;;;;;;31.92;28.98;;;12.60;99.90;;;;;;4914724;29;20049;-89
2022/06/01 06:40:30;;;;;;;31.80;28.75;;;12.70;99.90;;;;;;4922571;29;20444;-89
2022/06/01 06:42:56;;;;;;;32.75;29.70;;;12.70;99.90;;;;;;4931170;29;20079;-89
2022/06/01 06:45:22;;;;;;;31.20;28.27;;;12.80;99.90;;;;;;4919046;29;20083;-88
2022/06/01 06:47:48;;;;;;;28.27;25.67;;;12.80;99.90;;;;;;4914931;29;20152;-89
2022/06/01 06:50:16;;;;;;;27.77;25.17;;;12.90;99.90;;;;;;4901149;29;20495;-88
2022/06/01 06:52:42;;;;;;;27.63;25.08;;;12.90;99.90;;;;;;4913456;29;20986;-89
2022/06/01 06:55:08;;;;;;;26.88;24.48;;;12.90;99.90;;;;;;4920599;29;20040;-89
2022/06/01 06:57:35;;;;;;;26.90;24.30;;;13.00;99.90;;;;;;4898818;29;20068;-90
2022/06/01 07:00:01;;;;;;;25.60;23.20;;;13.10;99.90;;;;;;4909123;29;20494;-89
2022/06/01 07:02:27;;;;;;;26.60;24.25;;;13.10;99.90;;;;;;4909687;29;20063;-91
2022/06/01 07:04:52;;;;;;;26.50;23.98;;;13.10;99.90;;;;;;4901521;29;20060;-88
2022/06/01 07:07:18;;;;;;;24.33;22.02;;;13.20;99.90;;;;;;4915961;29;20052;-90
2022/06/01 07:09:44;;;;;;;25.38;23.02;;;13.10;99.90;;;;;;4933891;29;20044;-91
2022/06/01 07:12:10;;;;;;;24.90;22.50;;;13.20;99.90;;;;;;4926099;29;20054;-91
2022/06/01 07:14:36;;;;;;;23.70;21.40;;;13.40;99.90;;;;;;4915712;29;20055;-90
2022/06/01 07:17:03;;;;;;;20.83;18.83;;;13.60;99.90;;;;;;4906127;29;20040;-90
2022/06/01 07:19:28;;;;;;;20.13;18.13;;;13.80;99.90;;;;;;4926658;29;20043;-90
2022/06/01 07:21:54;;;;;;;20.27;18.27;;;14.00;99.90;;;;;;4915388;29;20092;-90
2022/06/01 07:24:21;;;;;;;21.00;18.90;;;14.20;99.90;;;;;;4925870;29;20288;-90
2022/06/01 07:26:48;;;;;;;21.92;19.83;;;14.40;99.90;;;;;;4920715;29;20544;-88
2022/06/01 07:29:15;;;;;;;21.48;19.35;;;14.70;99.90;;;;;;4895797;29;20076;-90
2022/06/01 07:31:42;;;;;;;20.35;18.35;;;14.70;99.90;;;;;;4928565;29;20370;-91
2022/06/01 07:34:08;;;;;;;19.40;17.60;;;14.70;99.90;;;;;;4917404;29;20380;-91
2022/06/01 07:36:35;;;;;;;19.45;17.55;;;14.70;99.90;;;;;;4922581;29;20519;-93
2022/06/01 07:44:43;;;;;;;18.23;16.42;;;14.70;99.90;;;;;;4911370;29;20047;-91
2022/06/01 07:47:10;;;;;;;19.00;17.10;;;14.60;99.90;;;;;;4901133;29;20055;-89
2022/06/01 07:49:36;;;;;;;17.30;15.60;;;14.60;99.90;;;;;;4922070;29;20040;-92
2022/06/01 07:52:03;;;;;;;15.50;13.85;;;14.60;99.90;;;;;;4908987;29;20339;-90
2022/06/01 07:54:29;;;;;;;14.80;13.27;;;14.50;99.90;;;;;;4896686;29;20048;-89
2022/06/01 07:56:55;;;;;;;15.52;13.98;;;14.30;99.90;;;;;;4893443;29;20436;-91
2022/06/01 07:59:21;;;;;;;15.85;14.07;;;14.10;99.90;;;;;;4919344;29;20450;-91
2022/06/01 08:01:47;;;;;;;16.77;15.07;;;14.00;99.90;;;;;;4914434;29;20047;-92
2022/06/01 08:04:13;;;;;;;15.82;14.23;;;13.90;99.90;;;;;;4914247;29;20147;-90
2022/06/01 08:06:39;;;;;;;12.88;9.10;;;13.70;99.90;;;;;;4913624;29;20044;-88
2022/06/01 08:09:06;;;;;;;6.15;3.25;;;13.30;99.90;;;;;;4914943;29;20047;-88
2022/06/01 08:14:17;;;;;;;9.15;4.60;;;12.60;99.90;;;;;;4919150;29;20055;-90
2022/06/01 08:16:46;;;;;;;8.35;5.13;;;12.40;99.90;;;;;;4898976;29;20131;-93
2022/06/01 08:19:13;;;;;;;10.73;6.05;;;12.30;99.90;;;;;;4902791;29;20048;-91
2022/06/01 08:21:38;;;;;;;9.07;6.00;;;12.10;99.90;;;;;;4913513;29;20092;-88
2022/06/01 08:24:06;;;;;;;9.18;6.18;;;12.10;99.90;;;;;;4921275;29;20131;-89
2022/06/01 08:26:34;;;;;;;9.02;6.38;;;12.00;99.90;;;;;;4920633;29;20047;-90
2022/06/01 08:28:59;;;;;;;9.25;5.97;;;11.90;99.90;;;;;;4930847;29;20051;-91
2022/06/01 08:31:27;;;;;;;13.73;6.10;;;11.90;99.90;;;;;;4904583;29;20052;-92
2022/06/01 08:34:00;;;;;;;8.82;6.22;;;11.90;99.90;;;;;;4914995;29;20556;-95
2022/06/01 08:36:26;;;;;;;9.35;5.72;;;11.90;99.90;;;;;;4911521;29;20071;-94
2022/06/01 08:38:52;;;;;;;7.47;5.00;;;11.90;99.90;;;;;;4913799;29;20048;-94
2022/06/01 08:41:21;;;;;;;8.90;5.20;;;11.80;99.90;;;;;;4918698;29;20071;-95
2022/06/01 08:43:54;;;;;;;8.93;6.18;;;11.90;99.90;;;;;;5008423;23;20029;-95
2022/06/01 08:46:21;;;;;;;7.85;5.53;;;11.90;99.90;;;;;;5005844;23;20073;-95
2022/06/01 08:48:49;;;;;;;8.73;5.88;;;11.90;99.90;;;;;;4995578;28;20085;-95
2022/06/01 08:51:19;;;;;;;9.52;6.10;;;12.00;99.90;;;;;;4960508;28;20077;-95
2022/06/01 08:53:45;;;;;;;8.90;6.70;;;12.10;99.90;;;;;;4956769;28;20427;-93
2022/06/01 08:56:17;;;;;;;9.40;7.18;;;12.20;99.90;;;;;;4940218;28;20034;-95
2022/06/01 08:59:12;;;;;;;7.93;4.80;;;12.40;99.90;;;;;;4946515;28;20049;-90
2022/06/01 09:02:08;;;;;;;8.13;5.70;;;12.50;99.90;;;;;;4932737;28;20043;-90
2022/06/01 09:04:47;;;;;;;8.30;6.25;;;12.60;99.90;;;;;;4943767;28;20316;-89
2022/06/01 09:07:33;;;;;;;8.13;5.20;;;12.60;99.90;;;;;;4968285;28;20041;-88
2022/06/01 09:10:25;;;;;;;8.30;5.30;;;12.50;99.90;;;;;;4946917;28;20484;-88
2022/06/01 09:13:00;;;;;;;8.07;5.80;;;12.40;99.90;;;;;;4953147;28;20047;-91
2022/06/01 09:15:27;;;;;;;9.82;5.25;;;12.50;99.90;;;;;;4955142;28;20038;-93
2022/06/01 09:17:56;;;;;;;8.77;6.03;;;12.60;99.90;;;;;;4936344;28;20439;-93
2022/06/01 09:23:12;;;;;;;10.60;8.18;;;13.00;99.90;;;;;;4966345;28;20059;-96
2022/06/01 09:30:57;;;;;;;9.77;7.90;;;13.40;99.90;;;;;;4952134;28;20107;-94
2022/06/01 09:33:28;;;;;;;9.63;8.15;;;13.50;99.90;;;;;;4957277;28;20075;-95
2022/06/01 09:36:06;;;;;;;9.90;8.25;;;13.50;99.90;;;;;;4954820;29;20512;-89
2022/06/01 09:38:47;;;;;;;9.23;7.93;;;13.60;99.90;;;;;;4931959;29;20089;-90
2022/06/01 09:41:23;;;;;;;9.20;7.88;;;13.70;99.90;;;;;;4951482;28;20055;-90
2022/06/01 09:44:10;;;;;;;9.73;8.45;;;13.70;99.90;;;;;;4947268;29;20047;-89
2022/06/01 09:47:00;;;;;;;10.75;8.65;;;13.70;99.90;;;;;;4947254;28;20047;-89
2022/06/01 09:49:31;;;;;;;10.07;7.75;;;13.50;99.90;;;;;;4950259;28;20039;-90
2022/06/01 09:52:18;;;;;;;;;;;13.40;99.90;;;;;;4948993;28;20059;-89
2022/06/01 09:54:51;;;;;;;9.98;8.27;;;13.30;99.90;;;;;;4950151;28;20128;-89
2022/06/01 09:57:33;;;;;;;10.20;8.50;;;13.20;99.90;;;;;;4950755;29;20039;-90
2022/06/01 10:08:28;;;;;;;11.18;9.20;;;13.20;99.90;;;;;;4952150;29;20134;-92
2022/06/01 10:11:09;;;;;;;12.45;9.85;;;13.10;99.90;;;;;;4949733;29;20126;-92
2022/06/01 10:14:08;;;;;;;10.55;9.13;;;13.20;99.90;;;;;;4952079;28;20046;-93
2022/06/01 10:16:45;;;;;;;9.63;7.28;;;13.30;99.90;;;;;;4933762;28;20051;-94
2022/06/01 10:19:15;;;;;;;9.82;6.88;;;13.40;99.90;;;;;;4951553;28;20444;-90
2022/06/01 10:21:47;;;;;;;8.63;6.95;;;13.50;99.90;;;;;;4950029;28;20043;-90
2022/06/01 10:24:20;;;;;;;7.88;5.25;;;13.70;99.90;;;;;;4949466;28;20174;-90
2022/06/01 10:26:55;;;;;;;7.22;4.57;;;13.70;99.90;;;;;;4949598;29;20071;-90
2022/06/01 10:29:31;;;;;;;7.60;4.50;;;13.80;99.90;;;;;;4946826;28;20051;-90
2022/06/01 10:32:09;;;;;;;8.65;6.10;;;13.80;99.90;;;;;;4932229;28;20047;-88
2022/06/01 10:35:07;;;;;;;7.95;5.90;;;13.90;99.90;;;;;;4926161;29;20047;-89
2022/06/01 10:37:57;;;;;;;8.18;4.88;;;13.90;99.90;;;;;;4931554;29;20051;-91
2022/06/01 10:40:40;;;;;;;6.63;3.42;;;13.90;99.90;;;;;;4947620;29;20066;-91
2022/06/01 10:43:40;;;;;;;7.80;4.80;;;13.90;99.90;;;;;;4949489;28;20051;-95
2022/06/01 10:46:32;;;;;;;7.60;5.47;;;14.00;99.90;;;;;;4937444;29;21151;-95
2022/06/01 10:54:21;;;;;;;7.93;6.10;;;14.10;99.90;;;;;;5820818;23;20073;-94
2022/06/01 10:56:48;;;;;;;8.65;6.38;;;14.10;99.90;;;;;;4981259;28;20050;-95
2022/06/01 10:59:16;;;;;;;8.75;5.82;;;14.00;99.90;;;;;;5217002;23;20110;-95
2022/06/01 11:02:04;;;;;;;5.70;3.20;;;14.00;99.90;;;;;;4976110;28;20066;-93
2022/06/01 11:04:30;;;;;;;5.85;2.90;;;13.90;99.90;;;;;;4989746;28;20069;-94
2022/06/01 11:07:25;;;;;;;5.63;2.80;;;13.70;99.90;;;;;;4968460;28;20086;-91
2022/06/01 11:10:00;;;;;;;4.78;2.60;;;13.60;99.90;;;;;;4942887;28;20050;-91
2022/06/01 11:13:03;;;;;;;5.97;3.47;;;13.70;99.90;;;;;;4942412;28;20369;-89
2022/06/01 11:15:29;;;;;;;5.85;3.20;;;13.90;99.90;;;;;;4961904;28;20043;-90
2022/06/01 11:18:17;;;;;;;5.45;2.60;;;14.00;99.90;;;;;;4980696;28;20108;-94
2022/06/01 11:20:58;;;;;;;4.75;2.38;;;14.20;99.90;;;;;;4970502;28;20050;-94
2022/06/01 11:23:40;;;;;;;4.57;2.10;;;14.40;99.90;;;;;;4950670;28;20074;-92
2022/06/01 11:26:31;;;;;;;4.40;2.22;;;14.50;99.90;;;;;;4952568;28;20042;-95
2022/06/01 11:29:07;;;;;;;;;;;14.40;99.90;;;;;;4964207;28;20052;-93
2022/06/01 11:31:36;;;;;;;4.53;2.50;;;14.30;99.90;;;;;;4984376;28;19918;-93
2022/06/01 11:34:26;;;;;;;4.15;2.45;;;14.30;99.90;;;;;;4966109;28;20050;-93
2022/06/01 11:37:04;;;;;;;5.63;3.03;;;14.30;99.90;;;;;;4966156;28;20357;-91
2022/06/01 11:39:39;;;;;;;5.18;2.67;;;14.10;99.90;;;;;;4972714;28;20399;-91
2022/06/01 11:42:23;;;;;;;6.60;3.40;;;14.00;99.90;;;;;;4968573;28;20054;-93
2022/06/01 11:44:58;;;;;;;6.07;3.33;;;13.80;99.90;;;;;;4985810;28;20166;-95
2022/06/01 11:47:25;;;;;;;6.93;3.42;;;13.60;99.90;;;;;;4964047;28;20042;-94
2022/06/01 11:50:26;;;;;;;6.85;3.90;;;13.40;99.90;;;;;;4960558;28;20034;-93
2022/06/01 11:53:01;;;;;;;7.63;2.97;;;13.30;99.90;;;;;;5157580;23;20099;-93
2022/06/01 11:58:40;;;;;;;4.43;2.38;;;13.00;99.90;;;;;;4970508;28;20047;-94
2022/06/01 12:01:45;;;;;;;4.47;2.38;;;12.80;99.90;;;;;;4948560;28;20038;-93
2022/06/01 12:04:28;;;;;;;4.68;2.50;;;12.80;99.90;;;;;;4944292;28;20043;-94
2022/06/01 12:07:08;;;;;;;5.80;2.72;;;12.80;99.90;;;;;;4950260;28;20435;-94
2022/06/01 12:09:50;;;;;;;5.07;2.50;;;12.90;99.90;;;;;;5012408;23;20047;-95
2022/06/01 12:12:24;;;;;;;5.90;2.45;;;12.90;99.90;;;;;;4965336;28;20058;-94
2022/06/01 12:17:33;;;;;;;5.40;2.60;;;13.10;99.90;;;;;;5878772;23;21396;31
2022/06/01 12:29:35;;;;;;;5.13;2.70;;;13.70;99.90;;;;;;4940664;28;20724;-95
2022/06/01 12:32:03;;;;;;;3.78;2.05;;;13.90;99.90;;;;;;4945856;28;20046;-93
2022/06/01 12:34:41;;;;;;;3.53;2.00;;;14.00;99.90;;;;;;4956531;28;20062;-92
2022/06/01 13:02:37;;;;;;;3.50;2.15;;;15.00;99.90;;;;;;5086316;27;20437;-87
2022/06/01 13:05:06;;;;;;;4.05;2.55;;;15.00;99.90;;;;;;5082973;28;20059;-86
2022/06/01 13:07:35;;;;;;;4.30;2.75;;;14.90;99.90;;;;;;5060350;28;20480;-86
2022/06/01 13:10:13;;;;;;;4.90;2.60;;;14.70;99.90;;;;;;5082859;28;20040;-88
2022/06/01 13:12:39;;;;;;;5.10;2.70;;;14.50;99.90;;;;;;5092652;28;20192;-87
2022/06/01 13:15:24;;;;;;;4.93;2.90;;;14.30;99.90;;;;;;5063435;28;20368;-85
2022/06/01 13:17:56;;;;;;;5.15;3.00;;;14.20;99.90;;;;;;5069848;28;20044;-86
2022/06/01 13:20:39;;;;;;;5.45;2.70;;;14.10;99.90;;;;;;5060761;28;20044;-88
2022/06/01 13:23:17;;;;;;;4.50;2.47;;;14.00;99.90;;;;;;5049279;28;20041;-87
2022/06/01 13:25:42;;;;;;;5.50;2.83;;;14.10;99.90;;;;;;5048436;28;20536;-88
2022/06/01 13:28:11;;;;;;;3.67;1.83;;;14.30;99.90;;;;;;5098590;28;20048;-88
2022/06/01 13:30:37;;;;;;;2.47;1.60;;;14.40;99.90;;;;;;5080584;28;20091;-89
2022/06/01 13:33:17;;;;;;;3.80;2.00;;;14.60;99.90;;;;;;5082317;28;20099;-84
2022/06/01 13:35:44;;;;;;;4.00;2.00;;;14.70;99.90;;;;;;5092283;28;20044;-86
2022/06/01 13:38:21;;;;;;;3.85;2.05;;;14.90;99.90;;;;;;5082541;28;20055;-87
2022/06/01 13:41:04;;;;;;;3.17;1.85;;;15.00;99.90;;;;;;5070752;28;20044;-89
2022/06/01 13:43:29;;;;;;;2.60;1.45;;;15.10;99.90;;;;;;5081865;28;20037;-88
2022/06/01 13:46:10;;;;;;;2.28;1.10;;;15.30;99.90;;;;;;5099677;28;20048;-87
2022/06/01 13:48:44;;;;;;;2.30;1.30;;;15.30;99.90;;;;;;5079365;28;20032;-88
2022/06/01 13:51:38;;;;;;;2.58;1.50;;;15.40;99.90;;;;;;5064538;28;20353;-90
2022/06/01 13:54:27;;;;;;;1.52;1.20;;;15.40;99.90;;;;;;5065253;28;20040;-92
2022/06/01 13:57:19;;;;;;;1.73;1.00;;;15.50;99.90;;;;;;5082303;28;20109;-91
2022/06/01 13:59:55;;;;;;;2.88;1.13;;;15.50;99.90;;;;;;5098457;28;20057;-92
2022/06/01 14:02:29;;;;;;;1.58;0.90;;;15.40;99.90;;;;;;5097605;28;20358;-88
2022/06/01 14:05:05;;;;;;;1.50;1.10;;;15.40;99.90;;;;;;5064352;28;20040;-91
2022/06/01 14:07:42;;;;;;;2.22;1.00;;;15.40;99.90;;;;;;5063238;28;20087;-89
2022/06/01 14:10:10;;;;;;;2.15;0.95;;;15.20;99.90;;;;;;5064058;28;20076;-88
2022/06/01 14:12:38;;;;;;;1.55;1.02;;;15.10;99.90;;;;;;5056754;28;20041;-90
2022/06/01 14:15:05;;;;;;;2.22;0.90;;;14.90;99.90;;;;;;5084238;28;20045;-88